Time;durP1;ratioP1;P1;durP2;ratioP2;P2;SDS_P1;SDS_P2;PMS_P1;PMS_P2;Temp;Humidity;BMP_temperature;BMP_pressure;BME280_temperature;BME280_humidity;BME280_pressure;Samples;Min_cycle;Max_cycle;Signal;HPM_P1;HPM_P2
2022/11/15 00:03:44;;;;;;;23.65;13.85;;;;;;;7.16;97.24;100467.44;20943476;28;20128;-61
2022/11/15 00:14:05;;;;;;;;;;;;;;;7.06;98.25;100463.72;20935332;28;20618;-62
2022/11/15 00:24:27;;;;;;;22.83;12.73;;;;;;;6.96;98.47;100464.31;20943910;28;19985;-62
2022/11/15 00:34:48;;;;;;;20.73;12.67;;;;;;;6.88;98.68;100462.13;20842723;23;20138;-62
2022/11/15 00:45:10;;;;;;;20.53;12.50;;;;;;;6.83;98.89;100463.31;20859817;28;20057;-63
2022/11/15 00:55:31;;;;;;;21.33;12.50;;;;;;;6.77;98.93;100464.50;20895419;28;20405;-64
2022/11/15 01:05:53;;;;;;;20.80;12.60;;;;;;;6.65;99.60;100466.09;20899664;28;20587;-63
2022/11/15 01:16:18;;;;;;;23.17;13.57;;;;;;;6.50;99.66;100459.13;20909389;28;20102;-64
2022/11/15 01:26:39;;;;;;;22.08;12.73;;;;;;;6.39;99.90;100451.13;20890427;28;20037;-63
2022/11/15 01:37:01;;;;;;;26.07;13.50;;;;;;;6.27;99.99;100425.88;20915520;28;20103;-63
2022/11/15 01:47:37;;;;;;;21.37;12.93;;;;;;;6.17;100.00;100424.69;20910798;28;20052;-63
2022/11/15 01:58:03;;;;;;;19.83;13.13;;;;;;;6.10;100.00;100407.84;20912670;28;20084;-65
2022/11/15 02:08:26;;;;;;;24.67;13.48;;;;;;;6.13;100.00;100399.91;20927171;28;20063;-64
2022/11/15 02:19:08;;;;;;;21.92;13.15;;;;;;;6.26;100.00;100375.06;20903938;28;20037;-63
2022/11/15 02:30:02;;;;;;;21.85;12.35;;;;;;;6.40;100.00;100380.31;20926613;28;20045;-65
2022/11/15 02:40:37;;;;;;;23.85;13.57;;;;;;;6.50;100.00;100381.47;20902631;28;20061;-64
2022/11/15 02:51:00;;;;;;;21.63;12.88;;;;;;;6.60;100.00;100364.50;20906488;28;20049;-64
2022/11/15 03:01:28;;;;;;;20.92;12.68;;;;;;;6.70;100.00;100369.91;20919878;28;20049;-64
2022/11/15 03:11:59;;;;;;;21.02;12.60;;;;;;;6.81;100.00;100371.91;20920641;28;20495;-63
2022/11/15 03:22:24;;;;;;;22.37;12.47;;;;;;;6.92;99.99;100375.56;20916953;28;20036;-64
2022/11/15 03:32:55;;;;;;;30.60;12.13;;;;;;;7.02;99.87;100361.16;20915912;28;20041;-63
2022/11/15 03:43:56;;;;;;;24.05;12.68;;;;;;;7.13;100.00;100348.41;20911793;28;20071;-66
2022/11/15 03:54:18;;;;;;;18.57;10.83;;;;;;;7.23;100.00;100346.97;20840514;28;20049;-66
2022/11/15 04:04:39;;;;;;;22.93;12.03;;;;;;;7.35;100.00;100348.00;20898920;28;20049;-66
2022/11/15 04:15:10;;;;;;;18.90;12.23;;;;;;;7.43;100.00;100346.59;20907659;28;20091;-66
2022/11/15 04:25:31;;;;;;;22.77;12.32;;;;;;;7.50;100.00;100340.13;20899694;28;20060;-65
2022/11/15 04:46:33;;;;;;;23.48;11.05;;;;;;;7.70;99.88;100353.56;20904678;28;20041;-66
2022/11/15 04:56:54;;;;;;;21.73;11.07;;;;;;;7.79;100.00;100349.59;20896351;28;20094;-65
2022/11/15 05:07:16;;;;;;;17.00;9.93;;;;;;;7.91;99.83;100348.84;20885252;28;20040;-66
2022/11/15 05:17:37;;;;;;;17.73;9.67;;;;;;;8.00;100.00;100340.50;20900748;28;20044;-67
2022/11/15 05:27:59;;;;;;;15.93;8.80;;;;;;;8.14;100.00;100337.88;20884145;28;20052;-66
2022/11/15 05:38:20;;;;;;;15.20;8.77;;;;;;;8.20;100.00;100324.53;20908152;28;20521;-65
2022/11/15 05:48:46;;;;;;;14.43;8.60;;;;;;;8.31;100.00;100319.50;20910380;28;20049;-66
2022/11/15 05:59:09;;;;;;;18.27;8.77;;;;;;;8.39;100.00;100335.44;20889381;28;20049;-65
2022/11/15 06:09:30;;;;;;;13.88;7.55;;;;;;;8.42;100.00;100332.66;20904097;28;20053;-66
2022/11/15 06:19:52;;;;;;;14.10;7.57;;;;;;;8.52;100.00;100337.13;20912236;28;20107;-66
2022/11/15 06:30:14;;;;;;;12.30;7.73;;;;;;;8.62;100.00;100340.84;20886781;28;20052;-66
2022/11/15 06:40:37;;;;;;;18.15;7.80;;;;;;;8.73;100.00;100328.78;20885255;28;20416;-66
2022/11/15 06:51:01;;;;;;;14.13;8.15;;;;;;;8.83;100.00;100348.06;21006621;23;20036;-70
2022/11/15 07:01:22;;;;;;;11.45;7.82;;;;;;;8.93;100.00;100362.13;20910551;28;20045;-70
2022/11/15 07:11:44;;;;;;;12.20;7.70;;;;;;;8.99;100.00;100369.53;20916877;28;20037;-70
2022/11/15 07:22:05;;;;;;;11.53;7.07;;;;;;;9.11;100.00;100373.94;20910164;28;20752;-70
2022/11/15 07:32:27;;;;;;;14.43;7.57;;;;;;;9.23;100.00;100357.50;20921452;28;20511;-70
2022/11/15 07:42:55;;;;;;;11.63;7.07;;;;;;;9.34;100.00;100370.63;20899447;28;20037;-71
2022/11/15 07:53:17;;;;;;;14.75;7.85;;;;;;;9.38;100.00;100366.91;20903569;28;20844;-70
2022/11/15 08:03:38;;;;;;;11.37;7.27;;;;;;;9.36;100.00;100353.16;20909712;28;20040;-69
2022/11/15 08:14:00;;;;;;;;;;;;;;;9.39;100.00;100347.75;20931083;28;20106;-70
2022/11/15 08:24:21;;;;;;;12.73;7.10;;;;;;;9.44;100.00;100356.09;20872927;28;20016;-69
2022/11/15 08:34:43;;;;;;;12.30;7.67;;;;;;;9.58;100.00;100353.38;20923130;28;20045;-69
2022/11/15 08:45:05;;;;;;;17.85;7.20;;;;;;;9.68;100.00;100360.44;20901190;28;20048;-69
2022/11/15 08:55:26;;;;;;;10.57;6.45;;;;;;;9.75;100.00;100369.50;20909085;28;20124;-69
2022/11/15 09:05:48;;;;;;;13.77;7.17;;;;;;;9.83;100.00;100374.19;20907098;28;20048;-69
2022/11/15 09:16:11;;;;;;;9.17;6.90;;;;;;;9.89;100.00;100363.38;20900627;28;20095;-69
2022/11/15 09:26:33;;;;;;;14.75;7.13;;;;;;;10.02;100.00;100352.00;20895540;28;20365;-69
2022/11/15 09:36:54;;;;;;;10.37;7.13;;;;;;;10.16;100.00;100353.66;20907129;28;20045;-69
2022/11/15 09:47:30;;;;;;;13.10;7.87;;;;;;;10.27;100.00;100358.94;20902750;28;20400;-69
2022/11/15 09:58:07;;;;;;;12.25;7.22;;;;;;;10.40;100.00;100349.31;20910260;28;20288;-69
2022/11/15 10:08:57;;;;;;;15.38;7.10;;;;;;;10.61;100.00;100333.81;20894532;28;20057;-69
2022/11/15 10:19:38;;;;;;;14.07;7.40;;;;;;;10.95;99.45;100322.56;20916551;28;20052;-69
2022/11/15 10:30:01;;;;;;;9.95;6.20;;;;;;;11.14;99.04;100320.25;20922937;28;20182;-69
2022/11/15 10:40:24;;;;;;;12.50;6.72;;;;;;;11.28;99.14;100309.59;20917529;28;20466;-69
2022/11/15 10:50:47;;;;;;;11.07;6.47;;;;;;;11.34;98.82;100288.28;20919624;28;20052;-69
2022/11/15 11:01:21;;;;;;;7.68;5.60;;;;;;;11.45;98.23;100274.38;20923730;28;20079;-69
2022/11/15 11:11:49;;;;;;;7.65;5.90;;;;;;;11.65;97.37;100256.25;20917465;28;20128;-69
2022/11/15 11:22:37;;;;;;;8.43;5.55;;;;;;;11.79;97.39;100248.19;20901809;28;20102;-69
2022/11/15 11:33:11;;;;;;;8.30;4.90;;;;;;;11.88;97.70;100247.47;20919046;28;20074;-69
2022/11/15 11:43:44;;;;;;;8.88;4.80;;;;;;;11.94;96.87;100236.53;20929820;28;20048;-69
2022/11/15 11:54:14;;;;;;;8.27;4.30;;;;;;;12.16;95.66;100242.53;20937256;28;20481;-69
2022/11/15 12:04:40;;;;;;;6.80;4.00;;;;;;;12.31;94.54;100230.03;20910391;28;20044;-69
2022/11/15 12:15:15;;;;;;;5.80;4.03;;;;;;;12.36;94.06;100206.97;20912521;28;20096;-69
2022/11/15 12:25:53;;;;;;;5.93;3.47;;;;;;;12.48;93.10;100202.41;20921215;28;20048;-69
2022/11/15 12:36:20;;;;;;;4.93;3.30;;;;;;;12.58;92.32;100192.81;20919414;28;20443;-70
2022/11/15 12:46:59;;;;;;;5.28;2.45;;;;;;;12.82;89.29;100180.31;20913935;28;20121;-69
2022/11/15 12:57:36;;;;;;;3.15;2.58;;;;;;;12.70;88.22;100170.88;20901399;28;20171;-68
2022/11/15 13:07:58;;;;;;;3.47;2.50;;;;;;;12.65;87.78;100167.00;20880204;28;20098;-68
2022/11/15 13:18:33;;;;;;;2.70;2.00;;;;;;;12.62;86.57;100181.16;20894500;28;20559;-69
2022/11/15 13:28:56;;;;;;;3.58;2.22;;;;;;;12.74;85.51;100187.13;20917842;28;20064;-69
2022/11/15 13:39:23;;;;;;;;;;;;;;;12.86;81.42;100173.88;20906669;28;20511;-69
2022/11/15 13:49:45;;;;;;;4.05;1.60;;;;;;;12.93;83.21;100161.13;20906731;28;20378;-70
2022/11/15 14:00:24;;;;;;;;;;;;;;;12.80;78.33;100166.56;20922784;28;20106;-70
2022/11/15 14:10:45;;;;;;;2.10;1.42;;;;;;;12.59;83.31;100147.41;20942678;28;19928;-69
2022/11/15 14:21:08;;;;;;;1.40;1.30;;;;;;;12.41;84.84;100144.66;20923205;28;20564;-69
2022/11/15 14:31:29;;;;;;;2.22;1.58;;;;;;;12.28;85.01;100141.41;20927943;28;20107;-70
2022/11/15 14:41:51;;;;;;;9.15;1.70;;;;;;;12.08;86.15;100139.63;20914340;28;20044;-70
2022/11/15 14:52:21;;;;;;;9.40;1.90;;;;;;;11.87;86.45;100128.28;20899185;28;20049;-70
2022/11/15 15:02:52;;;;;;;5.00;2.30;;;;;;;11.68;87.79;100099.38;20917510;28;20053;-69
2022/11/15 15:13:22;;;;;;;6.15;2.20;;;;;;;11.48;87.84;100099.28;20924981;28;20041;-70
2022/11/15 15:23:44;;;;;;;3.17;2.10;;;;;;;11.23;88.94;100081.31;20911047;28;20134;-69
2022/11/15 15:34:05;;;;;;;6.60;2.30;;;;;;;11.00;90.17;100070.09;20917193;28;20419;-70
2022/11/15 15:44:32;;;;;;;3.80;2.28;;;;;;;10.76;91.42;100058.13;20885191;28;20056;-68
2022/11/15 15:54:54;;;;;;;4.43;2.40;;;;;;;10.55;91.35;100055.41;20921158;28;20041;-68
2022/11/15 16:05:15;;;;;;;6.90;2.60;;;;;;;10.39;91.32;100061.91;20914630;28;20373;-68
2022/11/15 16:15:37;;;;;;;;;;;;;;;10.21;90.43;100052.03;20901297;28;20336;-69
2022/11/15 16:25:58;;;;;;;9.00;2.43;;;;;;;10.08;91.47;100035.66;20881385;28;20424;-70
2022/11/15 16:36:25;;;;;;;4.32;2.42;;;;;;;10.03;91.72;100032.59;20898687;28;20086;-68
2022/11/15 16:46:51;;;;;;;5.60;2.60;;;;;;;9.99;91.19;100025.94;20879537;28;20134;-69
2022/11/15 16:57:13;;;;;;;6.38;3.33;;;;;;;9.89;91.90;100009.34;20886078;28;20389;-68
2022/11/15 17:07:35;;;;;;;4.10;2.70;;;;;;;9.82;91.90;100008.13;20875302;28;20154;-68
2022/11/15 17:17:56;;;;;;;5.78;2.90;;;;;;;9.85;92.52;100000.09;20884802;28;20408;-68
2022/11/15 17:28:18;;;;;;;9.33;2.60;;;;;;;9.90;92.48;99990.13;20893849;28;20049;-67
2022/11/15 17:38:43;;;;;;;5.07;2.85;;;;;;;9.94;93.09;99991.56;20879202;28;20037;-67
2022/11/15 17:49:04;;;;;;;6.32;3.25;;;;;;;10.04;93.44;99979.56;20879499;28;20049;-68
2022/11/15 17:59:26;;;;;;;4.53;3.05;;;;;;;10.16;93.58;99983.84;20892972;28;20068;-68
2022/11/15 18:09:47;;;;;;;5.10;3.40;;;;;;;10.26;94.48;99974.38;20891108;28;20049;-66
2022/11/15 18:20:09;;;;;;;5.97;3.50;;;;;;;10.38;94.00;99963.00;20890606;28;20072;-67
2022/11/15 18:30:31;;;;;;;4.60;3.60;;;;;;;10.45;94.53;99948.56;20880074;28;20077;-68
2022/11/15 18:40:52;;;;;;;6.10;3.10;;;;;;;10.48;94.73;99945.72;20900377;28;20045;-67
2022/11/15 18:51:16;;;;;;;7.13;3.97;;;;;;;10.50;94.80;99930.78;20905615;22;20115;-61
2022/11/15 19:01:40;;;;;;;6.50;4.00;;;;;;;10.55;94.88;99919.88;20888106;28;20400;-60
2022/11/15 19:12:01;;;;;;;9.30;3.85;;;;;;;10.57;95.12;99904.13;20896190;28;20103;-61
2022/11/15 19:22:23;;;;;;;6.47;3.53;;;;;;;10.58;95.21;99911.84;20878462;28;20049;-62
2022/11/15 19:32:45;;;;;;;3.85;3.05;;;;;;;10.63;95.29;99911.47;20885902;28;20296;-61
2022/11/15 19:43:06;;;;;;;8.07;3.80;;;;;;;10.63;95.49;99899.25;20888595;28;20072;-61
2022/11/15 19:53:29;;;;;;;4.97;3.13;;;;;;;10.69;95.45;99892.75;20910061;28;20495;-61
2022/11/15 20:03:58;;;;;;;6.80;3.30;;;;;;;10.68;95.34;99886.69;20929169;28;20046;-61
2022/11/15 20:14:20;;;;;;;12.32;3.38;;;;;;;10.66;95.16;99872.94;20922055;28;20080;-61
2022/11/15 20:24:41;;;;;;;8.00;3.55;;;;;;;10.66;95.53;99867.72;20911113;28;20163;-61
2022/11/15 20:35:03;;;;;;;5.40;3.88;;;;;;;10.71;94.99;99870.81;20911692;28;20074;-61
2022/11/15 20:45:24;;;;;;;7.18;3.80;;;;;;;10.67;95.34;99858.97;20912743;28;20110;-61
2022/11/15 20:55:47;;;;;;;8.05;3.60;;;;;;;10.65;95.14;99850.44;20910807;28;20048;-61
2022/11/15 21:06:10;;;;;;;6.05;4.00;;;;;;;10.64;94.54;99840.97;20916488;28;20389;-61
2022/11/15 21:16:32;;;;;;;8.00;3.58;;;;;;;10.63;94.89;99831.50;20897677;28;20037;-61
2022/11/15 21:26:54;;;;;;;5.47;3.15;;;;;;;10.66;94.31;99820.00;20902693;28;20044;-61
2022/11/15 21:37:15;;;;;;;4.93;3.20;;;;;;;10.64;94.15;99814.09;20860942;28;20056;-61
2022/11/15 21:47:37;;;;;;;6.93;3.08;;;;;;;10.65;94.25;99811.34;20903286;28;20050;-61
2022/11/15 21:58:06;;;;;;;5.03;3.28;;;;;;;10.67;93.97;99796.41;20899642;28;20490;-62
2022/11/15 22:08:27;;;;;;;5.60;3.53;;;;;;;10.63;94.22;99789.78;20884817;28;20049;-62
2022/11/15 22:18:49;;;;;;;8.20;3.60;;;;;;;10.62;94.16;99777.72;20905483;28;20299;-62
2022/11/15 22:29:10;;;;;;;9.57;3.65;;;;;;;10.61;94.26;99768.25;20925475;28;20423;-62
2022/11/15 22:39:32;;;;;;;7.20;3.92;;;;;;;10.63;94.05;99766.34;20923633;28;20037;-62
2022/11/15 22:49:53;;;;;;;4.53;3.10;;;;;;;10.66;94.39;99753.06;20920819;28;20056;-62
2022/11/15 23:00:15;;;;;;;5.45;3.78;;;;;;;10.64;94.51;99748.94;20916930;28;20556;-62
2022/11/15 23:42:59;;;;;;;6.05;3.88;;;;;;;10.62;94.42;99730.78;20929800;28;20061;-62
2022/11/15 23:53:21;;;;;;;8.05;3.60;;;;;;;10.58;94.63;99719.00;20917193;28;20098;-62
